createdAt,value
2017-09-20T00:00:02.912Z,0
2017-09-20T00:01:11.928Z,0
2017-09-20T00:02:21.261Z,0
2017-09-20T00:03:30.276Z,0
2017-09-20T00:04:39.612Z,0
2017-09-20T00:05:49.268Z,0
2017-09-20T00:06:58.607Z,0
2017-09-20T00:08:07.305Z,0
2017-09-20T00:09:16.004Z,0
2017-09-20T00:10:25.012Z,0
2017-09-20T00:11:34.350Z,0
2017-09-20T00:12:43.368Z,0
2017-09-20T00:13:52.703Z,0
2017-09-20T00:15:01.397Z,0
2017-09-20T00:16:10.734Z,0
2017-09-20T00:17:19.431Z,0
2017-09-20T00:18:28.446Z,0
2017-09-20T00:19:37.458Z,0
2017-09-20T00:20:46.155Z,0
2017-09-20T00:21:55.172Z,0
2017-09-20T00:23:04.188Z,0
2017-09-20T00:24:12.882Z,0
2017-09-20T00:25:22.218Z,0
2017-09-20T00:26:31.552Z,0
2017-09-20T00:27:40.247Z,0
2017-09-20T00:28:48.942Z,0
2017-09-20T00:29:57.997Z,0
2017-09-20T00:31:07.332Z,0
2017-09-20T00:32:16.989Z,0
2017-09-20T00:33:26.002Z,0
2017-09-20T00:34:35.338Z,0
2017-09-20T00:35:44.671Z,0
2017-09-20T00:36:53.369Z,0
2017-09-20T00:38:02.386Z,0
2017-09-20T00:39:11.082Z,0
2017-09-20T00:40:20.101Z,0
2017-09-20T00:41:29.434Z,0
2017-09-20T00:42:38.128Z,0
2017-09-20T00:43:47.149Z,0
2017-09-20T00:44:56.161Z,0
2017-09-20T00:46:05.494Z,0
2017-09-20T00:47:14.507Z,0
2017-09-20T00:48:24.478Z,0
2017-09-20T00:49:33.495Z,0
2017-09-20T00:50:43.159Z,0
2017-09-20T00:51:52.173Z,0
2017-09-20T00:53:01.516Z,0
2017-09-20T00:54:10.214Z,0
2017-09-20T00:55:18.909Z,0
2017-09-20T00:56:28.248Z,0
2017-09-20T00:57:37.904Z,0
2017-09-20T00:58:46.921Z,0
2017-09-20T00:59:55.937Z,0
2017-09-20T01:01:04.949Z,0
2017-09-20T01:02:13.644Z,0
2017-09-20T01:03:22.335Z,0
2017-09-20T01:04:31.030Z,0
2017-09-20T01:05:41.002Z,0
2017-09-20T01:06:49.694Z,0
2017-09-20T01:07:58.710Z,0
2017-09-20T01:09:07.405Z,0
2017-09-20T01:10:16.739Z,0
2017-09-20T01:11:26.393Z,0
2017-09-20T01:12:35.406Z,0
2017-09-20T01:13:45.069Z,0
2017-09-20T01:14:54.403Z,0
2017-09-20T01:16:03.417Z,0
2017-09-20T01:17:12.754Z,0
2017-09-20T01:18:22.093Z,0
2017-09-20T01:19:31.107Z,0
2017-09-20T01:20:40.442Z,0
2017-09-20T01:21:49.137Z,0
2017-09-20T01:22:58.470Z,0
2017-09-20T01:24:07.486Z,0
2017-09-20T01:25:16.823Z,0
2017-09-20T01:26:25.838Z,0
2017-09-20T01:27:35.170Z,0
2017-09-20T01:28:44.510Z,0
2017-09-20T01:29:53.205Z,0
2017-09-20T01:31:02.863Z,0
2017-09-20T01:32:11.558Z,0
2017-09-20T01:33:21.213Z,0
2017-09-20T01:34:30.227Z,0
2017-09-20T01:35:39.568Z,0
2017-09-20T01:36:48.903Z,0
2017-09-20T01:37:57.916Z,0
2017-09-20T01:39:06.928Z,0
2017-09-20T01:40:15.637Z,0
2017-09-20T01:41:24.334Z,0
2017-09-20T01:42:33.346Z,0
2017-09-20T01:43:42.679Z,0
2017-09-20T01:44:52.015Z,0
2017-09-20T01:46:01.673Z,0
2017-09-20T01:47:10.686Z,0
2017-09-20T01:48:20.343Z,0
2017-09-20T01:49:30.000Z,0
2017-09-20T01:50:38.695Z,0
2017-09-20T01:51:47.387Z,0
2017-09-20T01:52:56.720Z,0
2017-09-20T01:54:05.416Z,0
2017-09-20T01:55:14.751Z,0
2017-09-20T01:56:23.772Z,0
2017-09-20T01:57:32.459Z,0
2017-09-20T01:58:41.154Z,0
2017-09-20T01:59:50.168Z,0
2017-09-20T02:00:59.180Z,0
2017-09-20T02:02:08.195Z,0
2017-09-20T02:03:17.846Z,0
2017-09-20T02:04:27.187Z,0
2017-09-20T02:05:35.882Z,0
2017-09-20T02:06:44.897Z,0
2017-09-20T02:07:53.912Z,0
2017-09-20T02:09:03.564Z,0
2017-09-20T02:10:13.222Z,0
2017-09-20T02:11:22.556Z,0
2017-09-20T02:12:31.572Z,0
2017-09-20T02:13:40.906Z,0
2017-09-20T02:14:50.246Z,0
2017-09-20T02:15:59.578Z,0
2017-09-20T02:17:08.594Z,0
2017-09-20T02:18:17.931Z,0
2017-09-20T02:19:26.625Z,0
2017-09-20T02:20:35.640Z,0
2017-09-20T02:21:44.334Z,0
2017-09-20T02:22:53.346Z,0
2017-09-20T02:24:02.039Z,0
2017-09-20T02:25:11.370Z,0
2017-09-20T02:26:20.383Z,0
2017-09-20T02:27:29.725Z,0
2017-09-20T02:28:38.740Z,0
2017-09-20T02:29:47.756Z,0
2017-09-20T02:30:56.770Z,0
2017-09-20T02:32:06.105Z,0
2017-09-20T02:33:15.118Z,0
2017-09-20T02:34:24.136Z,0
2017-09-20T02:35:33.152Z,0
2017-09-20T02:36:42.489Z,0
2017-09-20T02:37:51.830Z,0
2017-09-20T02:39:00.847Z,0
2017-09-20T02:40:10.185Z,0
2017-09-20T02:41:19.525Z,0
2017-09-20T02:42:28.861Z,0
2017-09-20T02:43:38.201Z,0
2017-09-20T02:44:47.865Z,0
2017-09-20T02:45:57.525Z,0
2017-09-20T02:47:06.539Z,0
2017-09-20T02:48:15.870Z,0
2017-09-20T02:49:25.207Z,0
2017-09-20T02:50:34.222Z,0
2017-09-20T02:51:42.917Z,0
2017-09-20T02:52:52.256Z,0
2017-09-20T02:54:01.594Z,0
2017-09-20T02:55:10.936Z,0
2017-09-20T02:56:19.949Z,0
2017-09-20T02:57:28.963Z,0
2017-09-20T02:58:37.655Z,0
2017-09-20T02:59:46.350Z,0
2017-09-20T03:00:56.001Z,0
2017-09-20T03:02:05.018Z,0
2017-09-20T03:03:14.673Z,0
2017-09-20T03:04:23.689Z,0
2017-09-20T03:05:32.385Z,0
2017-09-20T03:06:41.718Z,0
2017-09-20T03:07:50.734Z,0
2017-09-20T03:08:59.747Z,0
2017-09-20T03:10:09.411Z,0
2017-09-20T03:11:19.063Z,0
2017-09-20T03:12:28.721Z,0
2017-09-20T03:13:38.049Z,0
2017-09-20T03:14:47.069Z,0
2017-09-20T03:15:56.405Z,0
2017-09-20T03:17:05.742Z,0
2017-09-20T03:18:15.076Z,0
2017-09-20T03:19:24.414Z,0
2017-09-20T03:20:33.748Z,0
2017-09-20T03:21:42.444Z,0
2017-09-20T03:22:51.783Z,0
2017-09-20T03:24:01.116Z,0
2017-09-20T03:25:09.811Z,0
2017-09-20T03:26:18.506Z,0
2017-09-20T03:27:27.202Z,0
2017-09-20T03:28:35.896Z,0
2017-09-20T03:29:45.550Z,0
2017-09-20T03:30:54.563Z,0
2017-09-20T03:32:03.895Z,0
2017-09-20T03:33:12.909Z,0
2017-09-20T03:34:21.605Z,0
2017-09-20T03:35:30.619Z,0
2017-09-20T03:36:39.957Z,0
2017-09-20T03:37:48.651Z,0
2017-09-20T03:38:57.663Z,0
2017-09-20T03:40:06.357Z,0
2017-09-20T03:41:15.371Z,0
2017-09-20T03:42:24.710Z,0
2017-09-20T03:43:34.046Z,0
2017-09-20T03:44:43.707Z,0
2017-09-20T03:45:53.358Z,0
2017-09-20T03:47:02.694Z,0
2017-09-20T03:48:11.708Z,0
2017-09-20T03:49:20.401Z,0
2017-09-20T03:50:29.418Z,0
2017-09-20T03:51:39.075Z,0
2017-09-20T03:52:48.089Z,0
2017-09-20T03:53:56.786Z,0
2017-09-20T03:55:06.440Z,0
2017-09-20T03:56:15.460Z,0
2017-09-20T03:57:24.506Z,0
2017-09-20T03:58:34.163Z,0
2017-09-20T03:59:43.507Z,0
2017-09-20T04:00:52.837Z,0
2017-09-20T04:02:01.851Z,0
2017-09-20T04:03:11.187Z,0
2017-09-20T04:04:19.880Z,0
2017-09-20T04:05:29.216Z,0
2017-09-20T04:06:37.911Z,0
2017-09-20T04:07:46.607Z,0
2017-09-20T04:08:55.298Z,0
2017-09-20T04:10:03.992Z,0
2017-09-20T04:11:13.325Z,0
2017-09-20T04:12:22.659Z,0
2017-09-20T04:13:31.354Z,0
2017-09-20T04:14:40.367Z,0
2017-09-20T04:15:49.708Z,0
2017-09-20T04:16:59.041Z,0
2017-09-20T04:18:07.739Z,0
2017-09-20T04:19:16.754Z,0
2017-09-20T04:20:26.406Z,0
2017-09-20T04:21:35.105Z,0
2017-09-20T04:22:44.120Z,0
2017-09-20T04:23:53.136Z,0
2017-09-20T04:25:02.480Z,0
2017-09-20T04:26:11.817Z,0
2017-09-20T04:27:20.832Z,0
2017-09-20T04:28:29.848Z,0
2017-09-20T04:29:39.507Z,0
2017-09-20T04:30:48.201Z,0
2017-09-20T04:31:56.903Z,0
2017-09-20T04:33:05.597Z,0
2017-09-20T04:34:14.609Z,0
2017-09-20T04:35:23.624Z,0
2017-09-20T04:36:33.276Z,0
2017-09-20T04:37:42.930Z,0
2017-09-20T04:38:51.950Z,0
2017-09-20T04:40:00.961Z,0
2017-09-20T04:41:09.677Z,0
2017-09-20T04:42:19.013Z,0
2017-09-20T04:43:28.350Z,0
2017-09-20T04:44:37.368Z,0
2017-09-20T04:45:46.381Z,0
2017-09-20T04:46:55.397Z,0
2017-09-20T04:48:04.730Z,0
2017-09-20T04:49:14.063Z,0
2017-09-20T04:50:22.757Z,0
2017-09-20T04:51:32.091Z,0
2017-09-20T04:52:41.111Z,0
2017-09-20T04:53:50.121Z,0
2017-09-20T04:54:59.775Z,0
2017-09-20T04:56:08.798Z,0
2017-09-20T04:57:17.490Z,0
2017-09-20T04:58:26.185Z,0
2017-09-20T04:59:34.880Z,0
2017-09-20T05:00:44.216Z,0
2017-09-20T05:01:53.228Z,0
2017-09-20T05:03:01.923Z,0
2017-09-20T05:04:10.940Z,0
2017-09-20T05:05:20.593Z,0
2017-09-20T05:06:29.614Z,0
2017-09-20T05:07:38.625Z,0
2017-09-20T05:08:47.639Z,0
2017-09-20T05:09:56.333Z,0
2017-09-20T05:11:05.702Z,0
2017-09-20T05:12:15.002Z,0
2017-09-20T05:13:24.016Z,0
2017-09-20T05:14:33.034Z,0
2017-09-20T05:15:42.692Z,0
2017-09-20T05:16:52.032Z,0
2017-09-20T05:18:01.688Z,0
2017-09-20T05:19:10.389Z,0
2017-09-20T05:20:19.398Z,0
2017-09-20T05:21:28.415Z,0
2017-09-20T05:22:37.430Z,0
2017-09-20T05:23:46.124Z,0
2017-09-20T05:24:55.139Z,0
2017-09-20T05:26:04.475Z,0
2017-09-20T05:27:13.490Z,0
2017-09-20T05:28:22.505Z,0
2017-09-20T05:29:32.476Z,0
2017-09-20T05:30:41.809Z,0
2017-09-20T05:31:51.465Z,0
2017-09-20T05:33:00.162Z,0
2017-09-20T05:34:09.493Z,0
2017-09-20T05:35:19.145Z,0
2017-09-20T05:36:28.813Z,0
2017-09-20T05:37:38.468Z,0
2017-09-20T05:38:47.164Z,0
2017-09-20T05:39:55.857Z,0
2017-09-20T05:41:04.550Z,0
2017-09-20T05:42:13.886Z,0
2017-09-20T05:43:23.220Z,0
2017-09-20T05:44:31.918Z,0
2017-09-20T05:45:40.611Z,0
2017-09-20T05:46:50.262Z,0
2017-09-20T05:47:59.276Z,0
2017-09-20T05:49:08.621Z,0
2017-09-20T05:50:17.632Z,0
2017-09-20T05:51:26.365Z,0
2017-09-20T05:52:35.676Z,0
2017-09-20T05:53:45.051Z,0
2017-09-20T05:54:54.080Z,0
2017-09-20T05:56:03.413Z,0
2017-09-20T05:57:12.106Z,0
2017-09-20T05:58:21.124Z,0
2017-09-20T05:59:30.457Z,0
2017-09-20T06:00:39.471Z,0
2017-09-20T06:01:48.485Z,0
2017-09-20T06:02:57.819Z,0
2017-09-20T06:04:06.513Z,0
2017-09-20T06:05:15.844Z,0
2017-09-20T06:06:24.859Z,0
2017-09-20T06:07:33.873Z,0
2017-09-20T06:08:42.894Z,0
2017-09-20T06:09:51.908Z,0
2017-09-20T06:11:00.924Z,0
2017-09-20T06:12:10.256Z,0
2017-09-20T06:13:19.274Z,0
2017-09-20T06:14:28.290Z,0
2017-09-20T06:15:37.619Z,0
2017-09-20T06:16:46.636Z,5
2017-09-20T06:17:55.331Z,5
2017-09-20T06:19:04.351Z,5
2017-09-20T06:20:13.364Z,5
2017-09-20T06:21:22.701Z,5
2017-09-20T06:22:31.397Z,5
2017-09-20T06:23:40.408Z,5
2017-09-20T06:24:49.108Z,5
2017-09-20T06:25:57.796Z,5
2017-09-20T06:27:06.816Z,5
2017-09-20T06:28:15.836Z,5
2017-09-20T06:29:24.871Z,5
2017-09-20T06:30:33.880Z,5
2017-09-20T06:31:42.574Z,5
2017-09-20T06:32:51.911Z,5
2017-09-20T06:34:01.244Z,5
2017-09-20T06:35:10.582Z,5
2017-09-20T06:36:19.916Z,5
2017-09-20T06:37:28.611Z,5
2017-09-20T06:38:37.624Z,5
2017-09-20T06:39:46.319Z,5
2017-09-20T06:40:55.015Z,5
2017-09-20T06:42:04.364Z,5
2017-09-20T06:43:13.383Z,5
2017-09-20T06:44:22.110Z,5
2017-09-20T06:45:31.766Z,5
2017-09-20T06:46:40.460Z,5
2017-09-20T06:47:49.473Z,5
2017-09-20T06:48:58.487Z,5
2017-09-20T06:50:07.831Z,5
2017-09-20T06:51:16.526Z,5
2017-09-20T06:52:25.543Z,5
2017-09-20T06:53:34.557Z,5
2017-09-20T06:54:43.251Z,5
2017-09-20T06:55:52.593Z,5
2017-09-20T06:57:01.288Z,5
2017-09-20T06:58:10.942Z,5
2017-09-20T06:59:20.282Z,0
2017-09-20T07:00:29.297Z,0
2017-09-20T07:01:38.642Z,5
2017-09-20T07:02:48.297Z,5
2017-09-20T07:03:57.952Z,5
2017-09-20T07:05:07.608Z,5
2017-09-20T07:06:16.623Z,5
2017-09-20T07:07:26.277Z,5
2017-09-20T07:08:35.617Z,5
2017-09-20T07:09:45.273Z,5
2017-09-20T07:10:54.288Z,5
2017-09-20T07:12:03.626Z,5
2017-09-20T07:13:12.640Z,5
2017-09-20T07:14:21.337Z,5
2017-09-20T07:15:30.994Z,5
2017-09-20T07:16:40.011Z,10
2017-09-20T07:17:49.659Z,10
2017-09-20T07:18:58.672Z,10
2017-09-20T07:20:08.007Z,10
2017-09-20T07:21:17.346Z,10
2017-09-20T07:22:26.041Z,10
2017-09-20T07:23:35.099Z,10
2017-09-20T07:24:43.792Z,10
2017-09-20T07:25:53.128Z,15
2017-09-20T07:27:02.465Z,15
2017-09-20T07:28:11.479Z,10
2017-09-20T07:29:20.184Z,10
2017-09-20T07:30:29.199Z,10
2017-09-20T07:31:37.895Z,10
2017-09-20T07:32:47.550Z,10
2017-09-20T07:33:56.246Z,10
2017-09-20T07:35:05.580Z,10
2017-09-20T07:36:14.272Z,5
2017-09-20T07:37:23.284Z,5
2017-09-20T07:38:32.301Z,5
2017-09-20T07:39:41.639Z,5
2017-09-20T07:40:51.293Z,5
2017-09-20T07:42:00.626Z,5
2017-09-20T07:43:09.642Z,10
2017-09-20T07:44:18.342Z,10
2017-09-20T07:45:27.355Z,10
2017-09-20T07:46:36.374Z,10
2017-09-20T07:47:45.388Z,10
2017-09-20T07:48:54.720Z,10
2017-09-20T07:50:04.055Z,10
2017-09-20T07:51:13.069Z,5
2017-09-20T07:52:22.723Z,10
2017-09-20T07:53:32.376Z,5
2017-09-20T07:54:41.392Z,5
2017-09-20T07:55:50.733Z,5
2017-09-20T07:57:00.076Z,5
2017-09-20T07:58:08.772Z,5
2017-09-20T07:59:17.790Z,5
2017-09-20T08:00:26.809Z,5
2017-09-20T08:01:35.506Z,5
2017-09-20T08:02:44.523Z,10
2017-09-20T08:03:53.537Z,10
2017-09-20T08:05:03.192Z,10
2017-09-20T08:06:12.527Z,10
2017-09-20T08:07:21.864Z,10
2017-09-20T08:08:30.878Z,10
2017-09-20T08:09:40.532Z,10
2017-09-20T08:10:49.866Z,10
2017-09-20T08:11:58.885Z,10
2017-09-20T08:13:07.900Z,10
2017-09-20T08:14:17.234Z,10
2017-09-20T08:15:26.252Z,10
2017-09-20T08:16:35.908Z,10
2017-09-20T08:17:44.603Z,5
2017-09-20T08:18:53.938Z,5
2017-09-20T08:20:03.273Z,5
2017-09-20T08:21:12.287Z,5
2017-09-20T08:22:21.945Z,5
2017-09-20T08:23:30.957Z,5
2017-09-20T08:24:39.977Z,5
2017-09-20T08:25:49.319Z,5
2017-09-20T08:26:58.973Z,5
2017-09-20T08:28:08.309Z,5
2017-09-20T08:29:17.332Z,5
2017-09-20T08:30:26.986Z,5
2017-09-20T08:31:36.635Z,5
2017-09-20T08:32:45.969Z,5
2017-09-20T08:33:55.303Z,5
2017-09-20T08:35:04.317Z,10
2017-09-20T08:36:13.972Z,5
2017-09-20T08:37:22.666Z,5
2017-09-20T08:38:31.681Z,5
2017-09-20T08:39:40.693Z,5
2017-09-20T08:40:49.706Z,5
2017-09-20T08:41:58.400Z,5
2017-09-20T08:43:07.734Z,10
2017-09-20T08:44:16.438Z,10
2017-09-20T08:45:25.138Z,10
2017-09-20T08:46:33.830Z,5
2017-09-20T08:47:42.844Z,10
2017-09-20T08:48:51.538Z,10
2017-09-20T08:50:00.870Z,10
2017-09-20T08:51:09.564Z,10
2017-09-20T08:52:19.216Z,10
2017-09-20T08:53:28.234Z,10
2017-09-20T08:54:36.928Z,10
2017-09-20T08:55:45.622Z,10
2017-09-20T08:56:54.638Z,15
2017-09-20T08:58:03.331Z,15
2017-09-20T08:59:12.025Z,15
2017-09-20T09:00:20.723Z,15
2017-09-20T09:01:29.739Z,15
2017-09-20T09:02:39.077Z,15
2017-09-20T09:03:48.413Z,15
2017-09-20T09:04:57.107Z,15
2017-09-20T09:06:06.445Z,15
2017-09-20T09:07:15.141Z,15
2017-09-20T09:08:24.155Z,15
2017-09-20T09:09:33.169Z,20
2017-09-20T09:10:42.183Z,20
2017-09-20T09:11:50.875Z,20
2017-09-20T09:13:00.528Z,20
2017-09-20T09:14:09.224Z,20
2017-09-20T09:15:18.879Z,20
2017-09-20T09:16:27.894Z,20
2017-09-20T09:17:37.230Z,20
2017-09-20T09:18:46.562Z,15
2017-09-20T09:19:55.895Z,15
2017-09-20T09:21:04.591Z,20
2017-09-20T09:22:13.608Z,20
2017-09-20T09:23:22.303Z,20
2017-09-20T09:24:30.998Z,20
2017-09-20T09:25:39.692Z,20
2017-09-20T09:26:49.025Z,20
2017-09-20T09:27:58.362Z,20
2017-09-20T09:29:07.372Z,20
2017-09-20T09:30:16.706Z,20
2017-09-20T09:31:26.364Z,20
2017-09-20T09:32:35.056Z,20
2017-09-20T09:33:44.389Z,20
2017-09-20T09:34:53.402Z,20
2017-09-20T09:36:02.096Z,15
2017-09-20T09:37:11.751Z,15
2017-09-20T09:38:20.762Z,15
2017-09-20T09:39:29.780Z,15
2017-09-20T09:40:38.475Z,15
2017-09-20T09:41:47.490Z,15
2017-09-20T09:42:56.505Z,15
2017-09-20T09:44:05.520Z,15
2017-09-20T09:45:15.171Z,15
2017-09-20T09:46:24.825Z,20
2017-09-20T09:47:33.839Z,20
2017-09-20T09:48:43.504Z,20
2017-09-20T09:49:52.517Z,20
2017-09-20T09:51:01.535Z,20
2017-09-20T09:52:10.549Z,20
2017-09-20T09:53:19.564Z,20
2017-09-20T09:54:29.220Z,20
2017-09-20T09:55:38.240Z,20
2017-09-20T09:56:47.258Z,20
2017-09-20T09:57:56.272Z,25
2017-09-20T09:59:05.926Z,30
2017-09-20T10:00:14.623Z,25
2017-09-20T10:01:23.635Z,25
2017-09-20T10:02:32.648Z,20
2017-09-20T10:03:41.665Z,20
2017-09-20T10:04:51.002Z,15
2017-09-20T10:05:59.696Z,10
2017-09-20T10:07:08.712Z,15
2017-09-20T10:08:18.365Z,15
2017-09-20T10:09:28.343Z,15
2017-09-20T10:10:37.997Z,20
2017-09-20T10:11:47.013Z,10
2017-09-20T10:12:56.028Z,10
2017-09-20T10:14:05.368Z,10
2017-09-20T10:15:14.383Z,15
2017-09-20T10:16:23.078Z,15
2017-09-20T10:17:32.093Z,15
2017-09-20T10:18:41.107Z,15
2017-09-20T10:19:50.440Z,15
2017-09-20T10:20:59.138Z,10
2017-09-20T10:22:08.798Z,15
2017-09-20T10:23:17.816Z,15
2017-09-20T10:24:26.834Z,15
2017-09-20T10:25:35.528Z,15
2017-09-20T10:26:44.553Z,15
2017-09-20T10:27:53.886Z,15
2017-09-20T10:29:02.580Z,15
2017-09-20T10:30:11.919Z,15
2017-09-20T10:31:20.932Z,15
2017-09-20T10:32:30.599Z,15
2017-09-20T10:33:39.293Z,20
2017-09-20T10:34:48.307Z,20
2017-09-20T10:35:57.645Z,20
2017-09-20T10:37:06.658Z,20
2017-09-20T10:38:15.680Z,15
2017-09-20T10:39:24.374Z,15
2017-09-20T10:40:33.713Z,15
2017-09-20T10:41:43.051Z,10
2017-09-20T10:42:51.749Z,10
2017-09-20T10:44:00.443Z,20
2017-09-20T10:45:09.783Z,20
2017-09-20T10:46:18.797Z,10
2017-09-20T10:47:27.811Z,10
2017-09-20T10:48:36.827Z,5
2017-09-20T10:49:46.160Z,5
2017-09-20T10:50:55.173Z,10
2017-09-20T10:52:03.866Z,15
2017-09-20T10:53:13.208Z,25
2017-09-20T10:54:21.903Z,30
2017-09-20T10:55:30.916Z,25
2017-09-20T10:56:39.608Z,30
2017-09-20T10:57:49.264Z,30
2017-09-20T10:58:58.277Z,25
2017-09-20T11:00:07.294Z,35
2017-09-20T11:01:15.985Z,30
2017-09-20T11:02:25.646Z,40
2017-09-20T11:03:34.985Z,45
2017-09-20T11:04:44.323Z,40
2017-09-20T11:05:53.019Z,35
2017-09-20T11:07:02.354Z,40
2017-09-20T11:08:11.049Z,85
2017-09-20T11:09:20.062Z,90
2017-09-20T11:10:29.397Z,75
2017-09-20T11:11:38.092Z,70
2017-09-20T11:12:47.756Z,50
2017-09-20T11:13:56.450Z,145
2017-09-20T11:15:05.794Z,80
2017-09-20T11:16:14.807Z,45
2017-09-20T11:17:23.822Z,60
2017-09-20T11:18:32.838Z,125
2017-09-20T11:19:42.171Z,70
2017-09-20T11:20:50.865Z,45
2017-09-20T11:22:00.517Z,80
2017-09-20T11:23:09.532Z,50
2017-09-20T11:24:18.547Z,50
2017-09-20T11:25:27.560Z,50
2017-09-20T11:26:36.253Z,45
2017-09-20T11:27:45.266Z,40
2017-09-20T11:28:54.283Z,55
2017-09-20T11:30:03.947Z,50
2017-09-20T11:31:12.963Z,130
2017-09-20T11:32:22.302Z,95
2017-09-20T11:33:31.315Z,50
2017-09-20T11:34:40.010Z,50
2017-09-20T11:35:49.027Z,285
2017-09-20T11:36:58.046Z,75
2017-09-20T11:38:07.701Z,60
2017-09-20T11:39:16.722Z,150
2017-09-20T11:40:25.737Z,50
2017-09-20T11:41:35.072Z,50
2017-09-20T11:42:44.095Z,100
2017-09-20T11:43:53.110Z,165
2017-09-20T11:45:02.445Z,445
2017-09-20T11:46:11.140Z,105
2017-09-20T11:47:19.837Z,55
2017-09-20T11:48:29.171Z,180
2017-09-20T11:49:38.509Z,125
2017-09-20T11:50:47.530Z,65
2017-09-20T11:51:56.866Z,85
2017-09-20T11:53:05.880Z,80
2017-09-20T11:54:15.859Z,50
2017-09-20T11:55:24.874Z,35
2017-09-20T11:56:33.892Z,40
2017-09-20T11:57:43.228Z,75
2017-09-20T11:58:51.925Z,105
2017-09-20T12:00:00.940Z,95
2017-09-20T12:01:10.595Z,120
2017-09-20T12:02:19.292Z,190
2017-09-20T12:03:28.627Z,195
2017-09-20T12:04:37.642Z,150
2017-09-20T12:05:46.337Z,150
2017-09-20T12:06:55.348Z,155
2017-09-20T12:08:05.002Z,155
2017-09-20T12:09:13.698Z,100
2017-09-20T12:10:22.396Z,115
2017-09-20T12:11:31.730Z,80
2017-09-20T12:12:40.425Z,50
2017-09-20T12:13:49.761Z,40
2017-09-20T12:14:59.102Z,50
2017-09-20T12:16:08.119Z,55
2017-09-20T12:17:17.457Z,55
2017-09-20T12:18:27.111Z,40
2017-09-20T12:19:36.124Z,35
2017-09-20T12:20:45.457Z,35
2017-09-20T12:21:54.791Z,60
2017-09-20T12:23:04.131Z,75
2017-09-20T12:24:13.146Z,50
2017-09-20T12:25:21.841Z,30
2017-09-20T12:26:31.176Z,105
2017-09-20T12:27:40.510Z,65
2017-09-20T12:28:49.843Z,50
2017-09-20T12:29:58.854Z,40
2017-09-20T12:31:08.189Z,40
2017-09-20T12:32:17.204Z,45
2017-09-20T12:33:25.899Z,30
2017-09-20T12:34:34.913Z,20
2017-09-20T12:35:44.886Z,15
2017-09-20T12:36:54.236Z,10
2017-09-20T12:38:03.252Z,10
2017-09-20T12:39:11.950Z,10
2017-09-20T12:40:21.287Z,10
2017-09-20T12:41:30.622Z,10
2017-09-20T12:42:40.280Z,10
2017-09-20T12:43:48.977Z,15
2017-09-20T12:44:58.317Z,30
2017-09-20T12:46:07.012Z,40
2017-09-20T12:47:16.037Z,45
2017-09-20T12:48:24.734Z,50
2017-09-20T12:49:34.078Z,55
2017-09-20T12:50:43.411Z,40
2017-09-20T12:51:52.423Z,35
2017-09-20T12:53:01.763Z,25
2017-09-20T12:54:11.100Z,20
2017-09-20T12:55:19.796Z,15
2017-09-20T12:56:29.134Z,20
2017-09-20T12:57:38.813Z,30
2017-09-20T12:58:47.831Z,50
2017-09-20T12:59:57.172Z,60
2017-09-20T13:01:06.825Z,80
2017-09-20T13:02:15.840Z,75
2017-09-20T13:03:25.179Z,65
2017-09-20T13:04:34.518Z,65
2017-09-20T13:05:43.216Z,60
2017-09-20T13:06:52.874Z,75
2017-09-20T13:08:01.892Z,70
2017-09-20T13:09:10.591Z,65
2017-09-20T13:10:19.955Z,75
2017-09-20T13:11:28.967Z,65
2017-09-20T13:12:38.304Z,80
2017-09-20T13:13:47.637Z,80
2017-09-20T13:14:56.654Z,75
2017-09-20T13:16:05.671Z,70
2017-09-20T13:17:15.007Z,75
2017-09-20T13:18:23.701Z,75
2017-09-20T13:19:33.033Z,65
2017-09-20T13:20:42.076Z,65
2017-09-20T13:21:51.411Z,60
2017-09-20T13:23:00.424Z,60
2017-09-20T13:24:09.757Z,60
2017-09-20T13:25:18.771Z,60
2017-09-20T13:26:27.786Z,55
2017-09-20T13:27:36.802Z,60
2017-09-20T13:28:46.462Z,55
2017-09-20T13:29:55.797Z,55
2017-09-20T13:31:05.134Z,45
2017-09-20T13:32:14.468Z,60
2017-09-20T13:33:23.484Z,60
2017-09-20T13:34:32.499Z,60
2017-09-20T13:35:41.518Z,65
2017-09-20T13:36:50.534Z,60
2017-09-20T13:38:00.201Z,45
2017-09-20T13:39:09.862Z,55
2017-09-20T13:40:19.523Z,55
2017-09-20T13:41:29.178Z,40
2017-09-20T13:42:38.195Z,40
2017-09-20T13:43:48.167Z,45
2017-09-20T13:44:57.182Z,55
2017-09-20T13:46:06.198Z,70
2017-09-20T13:47:15.216Z,70
2017-09-20T13:48:24.872Z,65
2017-09-20T13:49:34.527Z,55
2017-09-20T13:50:43.223Z,45
2017-09-20T13:51:51.919Z,45
2017-09-20T13:53:00.933Z,45
2017-09-20T13:54:09.628Z,45
2017-09-20T13:55:18.966Z,45
2017-09-20T13:56:27.664Z,40
2017-09-20T13:57:37.324Z,45
2017-09-20T13:58:46.556Z,55
2017-09-20T13:59:56.211Z,55
2017-09-20T14:01:04.908Z,45
2017-09-20T14:02:13.927Z,45
2017-09-20T14:03:22.624Z,45
2017-09-20T14:04:32.639Z,45
2017-09-20T14:05:41.654Z,40
2017-09-20T14:06:50.989Z,40
2017-09-20T14:08:00.005Z,45
2017-09-20T14:09:09.018Z,35
2017-09-20T14:10:17.715Z,40
2017-09-20T14:11:26.733Z,40
2017-09-20T14:12:35.747Z,40
2017-09-20T14:13:44.443Z,40
2017-09-20T14:14:53.140Z,30
2017-09-20T14:16:03.152Z,35
2017-09-20T14:17:12.807Z,40
2017-09-20T14:18:21.822Z,25
2017-09-20T14:19:31.477Z,25
2017-09-20T14:20:40.172Z,35
2017-09-20T14:21:49.191Z,40
2017-09-20T14:22:58.208Z,40
2017-09-20T14:24:07.546Z,40
2017-09-20T14:25:17.231Z,40
2017-09-20T14:26:26.570Z,30
2017-09-20T14:27:35.906Z,25
2017-09-20T14:28:44.922Z,35
2017-09-20T14:29:54.265Z,30
2017-09-20T14:31:02.959Z,40
2017-09-20T14:32:11.657Z,40
2017-09-20T14:33:20.354Z,40
2017-09-20T14:34:29.369Z,40
2017-09-20T14:35:38.064Z,40
2017-09-20T14:36:47.082Z,45
2017-09-20T14:37:56.099Z,40
2017-09-20T14:39:05.116Z,40
2017-09-20T14:40:14.138Z,30
2017-09-20T14:41:22.835Z,30
2017-09-20T14:42:32.171Z,25
2017-09-20T14:43:41.506Z,25
2017-09-20T14:44:50.840Z,25
2017-09-20T14:45:59.536Z,25
2017-09-20T14:47:08.551Z,30
2017-09-20T14:48:17.886Z,25
2017-09-20T14:49:27.221Z,35
2017-09-20T14:50:36.557Z,30
2017-09-20T14:51:45.890Z,30
2017-09-20T14:52:55.543Z,30
2017-09-20T14:54:04.238Z,30
2017-09-20T14:55:13.255Z,40
2017-09-20T14:56:22.270Z,45
2017-09-20T14:57:31.609Z,40
2017-09-20T14:58:41.272Z,35
2017-09-20T14:59:50.605Z,35
2017-09-20T15:00:59.630Z,30
2017-09-20T15:02:08.642Z,30
2017-09-20T15:03:17.976Z,30
2017-09-20T15:04:26.671Z,25
2017-09-20T15:05:36.022Z,30
2017-09-20T15:06:44.715Z,30
2017-09-20T15:07:53.736Z,20
2017-09-20T15:09:03.713Z,20
2017-09-20T15:10:12.412Z,20
2017-09-20T15:11:21.427Z,15
2017-09-20T15:12:30.772Z,15
2017-09-20T15:13:40.748Z,15
2017-09-20T15:14:50.084Z,20
2017-09-20T15:15:59.416Z,15
2017-09-20T15:17:08.435Z,15
2017-09-20T15:18:17.128Z,15
2017-09-20T15:19:26.141Z,15
2017-09-20T15:20:35.161Z,20
2017-09-20T15:21:44.174Z,25
2017-09-20T15:22:53.511Z,30
2017-09-20T15:24:02.531Z,25
2017-09-20T15:25:11.864Z,25
2017-09-20T15:26:20.878Z,20
2017-09-20T15:27:30.534Z,20
2017-09-20T15:28:39.870Z,20
2017-09-20T15:29:49.206Z,20
2017-09-20T15:30:58.221Z,20
2017-09-20T15:32:07.883Z,20
2017-09-20T15:33:16.898Z,20
2017-09-20T15:34:26.235Z,20
2017-09-20T15:35:35.255Z,20
2017-09-20T15:36:44.268Z,20
2017-09-20T15:37:53.923Z,20
2017-09-20T15:39:03.261Z,20
2017-09-20T15:40:12.277Z,20
2017-09-20T15:41:22.253Z,15
2017-09-20T15:42:31.593Z,15
2017-09-20T15:43:40.613Z,20
2017-09-20T15:44:49.631Z,20
2017-09-20T15:45:58.974Z,15
2017-09-20T15:47:08.626Z,15
2017-09-20T15:48:17.643Z,15
2017-09-20T15:49:26.658Z,15
2017-09-20T15:50:35.673Z,15
2017-09-20T15:51:45.006Z,15
2017-09-20T15:52:54.342Z,20
2017-09-20T15:54:03.357Z,20
2017-09-20T15:55:12.374Z,15
2017-09-20T15:56:21.709Z,15
2017-09-20T15:57:30.744Z,15
2017-09-20T15:58:39.759Z,15
2017-09-20T15:59:48.780Z,15
2017-09-20T16:00:57.795Z,15
2017-09-20T16:02:06.489Z,15
2017-09-20T16:03:16.147Z,15
2017-09-20T16:04:25.161Z,15
2017-09-20T16:05:33.856Z,15
2017-09-20T16:06:42.555Z,15
2017-09-20T16:07:51.257Z,15
2017-09-20T16:08:59.953Z,15
2017-09-20T16:10:08.647Z,15
2017-09-20T16:11:17.993Z,15
2017-09-20T16:12:27.010Z,15
2017-09-20T16:13:36.031Z,15
2017-09-20T16:14:45.048Z,15
2017-09-20T16:15:53.743Z,15
2017-09-20T16:17:02.438Z,15
2017-09-20T16:18:11.452Z,15
2017-09-20T16:19:20.788Z,15
2017-09-20T16:20:29.804Z,10
2017-09-20T16:21:38.818Z,15
2017-09-20T16:22:47.515Z,10
2017-09-20T16:23:56.529Z,10
2017-09-20T16:25:05.877Z,10
2017-09-20T16:26:15.529Z,10
2017-09-20T16:27:24.543Z,10
2017-09-20T16:28:33.238Z,10
2017-09-20T16:29:41.931Z,10
2017-09-20T16:30:50.628Z,10
2017-09-20T16:31:59.962Z,10
2017-09-20T16:33:09.618Z,10
2017-09-20T16:34:18.957Z,10
2017-09-20T16:35:27.656Z,5
2017-09-20T16:36:37.321Z,5
2017-09-20T16:37:46.981Z,5
2017-09-20T16:38:56.323Z,5
2017-09-20T16:40:05.348Z,5
2017-09-20T16:41:14.045Z,5